createdAt,value
2019-05-07T00:00:14.629Z,95.50
2019-05-07T00:03:03.304Z,95.70
2019-05-07T00:05:53.746Z,95.80
2019-05-07T00:08:44.645Z,95.90
2019-05-07T00:11:32.994Z,95.90
2019-05-07T00:14:20.247Z,96.20
2019-05-07T00:17:08.554Z,95.80
2019-05-07T00:19:56.289Z,95.80
2019-05-07T00:22:44.243Z,95.70
2019-05-07T00:25:32.959Z,95.80
2019-05-07T00:28:22.994Z,95.70
2019-05-07T00:31:12.354Z,95.90
2019-05-07T00:34:02.784Z,95.90
2019-05-07T00:36:52.504Z,96.00
2019-05-07T00:39:58.339Z,96.00
2019-05-07T00:42:48.505Z,96.10
2019-05-07T00:45:52.716Z,96.20
2019-05-07T00:48:41.713Z,96.10
2019-05-07T00:51:33.147Z,96.20
2019-05-07T00:54:23.023Z,96.30
2019-05-07T00:57:12.424Z,96.40
2019-05-07T01:00:02.241Z,96.40
2019-05-07T01:02:52.385Z,96.40
2019-05-07T01:05:39.491Z,96.50
2019-05-07T01:08:27.508Z,96.50
2019-05-07T01:11:16.157Z,96.50
2019-05-07T01:14:04.527Z,96.70
2019-05-07T01:16:53.058Z,96.80
2019-05-07T01:19:42.337Z,97.10
2019-05-07T01:22:49.993Z,97.20
2019-05-07T01:25:38.098Z,97.20
2019-05-07T01:28:26.168Z,97.20
2019-05-07T01:31:14.878Z,97.20
2019-05-07T01:34:23.030Z,97.10
2019-05-07T01:37:12.283Z,97.20
2019-05-07T01:39:59.651Z,97.20
2019-05-07T01:42:47.474Z,97.20
2019-05-07T01:45:46.359Z,97.30
2019-05-07T01:48:26.482Z,97.30
2019-05-07T01:51:14.912Z,97.40
2019-05-07T01:54:02.994Z,97.60
2019-05-07T01:56:52.170Z,97.60
2019-05-07T01:59:42.500Z,97.60
2019-05-07T02:02:34.888Z,97.60
2019-05-07T02:05:42.434Z,97.50
2019-05-07T02:08:50.057Z,97.90
2019-05-07T02:11:45.789Z,97.90
2019-05-07T02:14:33.701Z,98.10
2019-05-07T02:17:22.801Z,98.20
2019-05-07T02:20:13.084Z,98.30
2019-05-07T02:23:02.603Z,98.40
2019-05-07T02:25:52.577Z,98.30
2019-05-07T02:28:42.486Z,98.30
2019-05-07T02:31:33.244Z,98.40
2019-05-07T02:34:23.211Z,98.30
2019-05-07T02:37:10.643Z,98.10
2019-05-07T02:40:00.098Z,98.00
2019-05-07T02:42:47.743Z,97.80
2019-05-07T02:45:37.800Z,97.70
2019-05-07T02:48:27.116Z,98.00
2019-05-07T02:51:25.686Z,98.40
2019-05-07T02:54:14.982Z,98.30
2019-05-07T02:57:03.341Z,98.50
2019-05-07T02:59:54.354Z,98.60
2019-05-07T03:02:43.650Z,98.60
2019-05-07T03:05:34.575Z,98.80
2019-05-07T03:08:26.975Z,98.70
2019-05-07T03:11:14.077Z,98.50
2019-05-07T03:14:02.945Z,98.50
2019-05-07T03:16:50.672Z,98.70
2019-05-07T03:19:43.076Z,98.80
2019-05-07T03:22:33.497Z,98.90
2019-05-07T03:25:24.208Z,98.90
2019-05-07T03:28:13.587Z,99.00
2019-05-07T03:31:16.865Z,99.10
2019-05-07T03:34:07.318Z,99.30
2019-05-07T03:36:57.639Z,99.20
2019-05-07T03:40:06.422Z,99.10
2019-05-07T03:42:54.709Z,99.00
2019-05-07T03:45:47.909Z,98.60
2019-05-07T03:48:37.464Z,99.10
2019-05-07T03:51:25.990Z,99.20
2019-05-07T03:54:14.525Z,99.40
2019-05-07T03:57:10.685Z,99.60
2019-05-07T03:59:53.305Z,99.50
2019-05-07T04:02:43.772Z,99.20
2019-05-07T04:05:34.263Z,99.40
2019-05-07T04:08:23.721Z,99.20
2019-05-07T04:11:13.428Z,99.50
2019-05-07T04:14:02.406Z,99.40
2019-05-07T04:16:49.535Z,99.20
2019-05-07T04:19:37.728Z,99.20
2019-05-07T04:22:28.913Z,99.00
2019-05-07T04:25:19.901Z,99.50
2019-05-07T04:28:09.222Z,99.30
2019-05-07T04:30:58.945Z,99.50
2019-05-07T04:33:48.398Z,99.80
2019-05-07T04:36:38.044Z,99.90
2019-05-07T04:39:25.870Z,99.90
2019-05-07T04:42:13.772Z,99.90
2019-05-07T04:45:04.159Z,99.90
2019-05-07T04:47:53.813Z,99.80
2019-05-07T04:50:47.591Z,99.70
2019-05-07T04:53:33.203Z,99.70
2019-05-07T04:56:23.936Z,99.60
2019-05-07T04:59:13.153Z,99.60
2019-05-07T05:02:04.146Z,99.50
2019-05-07T05:04:53.109Z,99.40
2019-05-07T05:07:43.127Z,99.70
2019-05-07T05:10:33.487Z,99.70
2019-05-07T05:13:23.527Z,99.90
2019-05-07T05:16:26.616Z,99.90
2019-05-07T05:19:14.938Z,99.90
2019-05-07T05:22:07.341Z,99.90
2019-05-07T05:25:13.757Z,99.90
2019-05-07T05:28:02.313Z,99.90
2019-05-07T05:30:52.831Z,99.90
2019-05-07T05:33:41.919Z,99.90
2019-05-07T05:36:32.755Z,99.90
2019-05-07T05:39:19.384Z,99.90
2019-05-07T05:42:08.993Z,99.80
2019-05-07T05:44:56.784Z,99.80
2019-05-07T05:47:45.347Z,99.90
2019-05-07T05:50:53.610Z,99.90
2019-05-07T05:53:49.343Z,99.90
2019-05-07T05:56:42.673Z,99.90
2019-05-07T05:59:47.443Z,99.90
2019-05-07T06:02:32.464Z,99.90
2019-05-07T06:05:42.045Z,99.90
2019-05-07T06:08:47.840Z,99.90
2019-05-07T06:11:37.750Z,99.90
2019-05-07T06:14:48.963Z,99.90
2019-05-07T06:17:38.763Z,99.90
2019-05-07T06:20:34.171Z,99.90
2019-05-07T06:23:26.782Z,99.90
2019-05-07T06:26:14.847Z,99.90
2019-05-07T06:29:02.981Z,99.90
2019-05-07T06:32:02.650Z,99.90
2019-05-07T06:34:52.277Z,99.80
2019-05-07T06:37:40.164Z,99.70
2019-05-07T06:40:32.154Z,99.70
2019-05-07T06:43:26.839Z,99.70
2019-05-07T06:46:14.815Z,99.70
2019-05-07T06:49:02.748Z,99.60
2019-05-07T06:51:52.860Z,99.50
2019-05-07T06:54:42.728Z,99.40
2019-05-07T06:57:32.959Z,99.40
2019-05-07T07:00:24.326Z,99.10
2019-05-07T07:03:13.473Z,98.90
2019-05-07T07:06:06.401Z,98.30
2019-05-07T07:08:55.638Z,98.60
2019-05-07T07:11:45.358Z,98.70
2019-05-07T07:14:33.306Z,98.40
2019-05-07T07:17:22.277Z,98.50
2019-05-07T07:20:12.672Z,98.40
2019-05-07T07:23:02.398Z,98.40
2019-05-07T07:25:52.217Z,98.30
2019-05-07T07:28:42.805Z,98.60
2019-05-07T07:31:32.016Z,98.10
2019-05-07T07:34:22.753Z,97.80
2019-05-07T07:37:23.436Z,98.30
2019-05-07T07:40:22.445Z,97.80
2019-05-07T07:43:12.897Z,97.90
2019-05-07T07:46:02.197Z,97.80
2019-05-07T07:49:04.371Z,97.50
2019-05-07T07:51:44.474Z,97.30
2019-05-07T07:54:32.075Z,97.00
2019-05-07T07:57:42.603Z,96.60
2019-05-07T08:00:32.840Z,96.80
2019-05-07T08:03:22.570Z,97.00
2019-05-07T08:06:11.544Z,96.50
2019-05-07T08:08:59.414Z,95.90
2019-05-07T08:11:47.258Z,95.40
2019-05-07T08:14:35.639Z,95.40
2019-05-07T08:17:23.927Z,95.90
2019-05-07T08:20:12.948Z,95.30
2019-05-07T08:23:02.925Z,95.50
2019-05-07T08:25:52.528Z,95.60
2019-05-07T08:28:41.904Z,95.10
2019-05-07T08:31:48.762Z,94.80
2019-05-07T08:34:38.475Z,94.50
2019-05-07T08:37:26.232Z,94.20
2019-05-07T08:40:14.800Z,94.40
2019-05-07T08:43:03.251Z,93.80
2019-05-07T08:45:53.436Z,95.20
2019-05-07T08:48:43.154Z,93.50
2019-05-07T08:51:32.685Z,94.60
2019-05-07T08:54:22.707Z,93.80
2019-05-07T08:57:12.150Z,93.60
2019-05-07T09:00:02.279Z,93.40
2019-05-07T09:02:52.394Z,92.40
2019-05-07T09:05:39.759Z,90.60
2019-05-07T09:08:27.519Z,90.60
2019-05-07T09:11:15.817Z,89.20
2019-05-07T09:14:03.871Z,88.20
2019-05-07T09:16:52.712Z,86.70
2019-05-07T09:19:50.832Z,85.90
2019-05-07T09:22:32.326Z,83.90
2019-05-07T09:25:22.138Z,84.50
2019-05-07T09:28:12.559Z,86.20
2019-05-07T09:31:02.154Z,83.70
2019-05-07T09:34:03.202Z,84.20
2019-05-07T09:36:52.487Z,87.20
2019-05-07T09:39:40.095Z,84.40
2019-05-07T09:42:28.073Z,84.00
2019-05-07T09:45:16.812Z,83.20
2019-05-07T09:48:07.174Z,81.40
2019-05-07T09:50:55.736Z,77.90
2019-05-07T09:53:44.790Z,78.80
2019-05-07T09:56:32.550Z,79.50
2019-05-07T09:59:21.840Z,79.00
2019-05-07T10:02:12.105Z,82.60
2019-05-07T10:05:02.458Z,78.60
2019-05-07T10:07:49.701Z,78.00
2019-05-07T10:10:37.795Z,75.90
2019-05-07T10:13:43.845Z,75.90
2019-05-07T10:16:52.288Z,72.90
2019-05-07T10:19:41.750Z,69.80
2019-05-07T10:22:32.115Z,73.70
2019-05-07T10:25:22.423Z,72.90
2019-05-07T10:28:12.548Z,70.60
2019-05-07T10:31:01.147Z,70.60
2019-05-07T10:33:49.393Z,70.20
2019-05-07T10:36:38.300Z,71.70
2019-05-07T10:39:26.972Z,71.40
2019-05-07T10:42:15.441Z,71.20
2019-05-07T10:45:06.320Z,73.80
2019-05-07T10:48:05.014Z,71.70
2019-05-07T10:50:54.564Z,71.30
2019-05-07T10:53:42.575Z,71.00
2019-05-07T10:56:32.492Z,70.00
2019-05-07T10:59:19.979Z,68.60
2019-05-07T11:02:09.455Z,67.30
2019-05-07T11:04:57.351Z,72.50
2019-05-07T11:07:45.871Z,64.40
2019-05-07T11:10:33.605Z,66.20
2019-05-07T11:13:22.070Z,67.90
2019-05-07T11:16:11.847Z,65.30
2019-05-07T11:19:01.954Z,62.40
2019-05-07T11:21:52.036Z,65.80
2019-05-07T11:24:40.168Z,64.30
2019-05-07T11:27:28.757Z,64.00
2019-05-07T11:30:17.692Z,63.10
2019-05-07T11:33:05.864Z,66.30
2019-05-07T11:35:54.471Z,63.40
2019-05-07T11:38:44.665Z,62.40
2019-05-07T11:41:34.403Z,58.40
2019-05-07T11:44:23.244Z,58.40
2019-05-07T11:47:24.317Z,57.20
2019-05-07T11:50:22.459Z,60.20
2019-05-07T11:53:11.169Z,61.80
2019-05-07T11:55:58.929Z,59.30
2019-05-07T11:58:46.948Z,63.10
2019-05-07T12:01:46.640Z,62.30
2019-05-07T12:04:27.996Z,60.40
2019-05-07T12:07:16.792Z,57.00
2019-05-07T12:10:06.578Z,55.70
2019-05-07T12:12:54.876Z,59.50
2019-05-07T12:15:43.610Z,55.20
2019-05-07T12:18:33.086Z,61.80
2019-05-07T12:21:23.618Z,58.00
2019-05-07T12:24:12.348Z,59.50
2019-05-07T12:26:59.305Z,60.00
2019-05-07T12:29:48.045Z,62.50
2019-05-07T12:35:37.563Z,60.00
2019-05-07T12:38:26.212Z,61.20
2019-05-07T12:41:30.037Z,60.30
2019-05-07T12:44:17.834Z,59.80
2019-05-07T12:47:05.862Z,64.00
2019-05-07T12:49:54.105Z,63.60
2019-05-07T12:52:43.431Z,59.00
2019-05-07T12:55:33.135Z,57.10
2019-05-07T12:58:22.838Z,57.40
2019-05-07T13:01:14.836Z,62.50
2019-05-07T13:04:09.586Z,62.70
2019-05-07T13:06:58.790Z,57.90
2019-05-07T13:09:46.474Z,59.10
2019-05-07T13:12:34.412Z,58.80
2019-05-07T13:15:27.558Z,60.00
2019-05-07T13:18:12.945Z,58.70
2019-05-07T13:21:02.436Z,57.50
2019-05-07T13:23:52.092Z,58.90
2019-05-07T13:26:42.621Z,61.90
2019-05-07T13:29:32.465Z,59.50
2019-05-07T13:32:22.139Z,60.00
2019-05-07T13:35:11.879Z,61.60
2019-05-07T13:38:04.880Z,60.10
2019-05-07T13:41:12.709Z,60.90
2019-05-07T13:44:19.044Z,61.60
2019-05-07T13:47:25.983Z,63.40
2019-05-07T13:50:14.509Z,62.10
2019-05-07T13:53:03.047Z,60.20
2019-05-07T13:55:51.665Z,64.80
2019-05-07T13:58:39.591Z,64.40
2019-05-07T14:01:38.785Z,60.90
2019-05-07T14:04:26.674Z,59.70
2019-05-07T14:07:15.720Z,60.20
2019-05-07T14:10:04.577Z,59.70
2019-05-07T14:12:52.840Z,60.30
2019-05-07T14:15:42.996Z,60.60
2019-05-07T14:18:32.568Z,60.00
2019-05-07T14:21:21.947Z,60.00
2019-05-07T14:24:12.331Z,61.40
2019-05-07T14:27:02.058Z,64.00
2019-05-07T14:29:52.050Z,63.30
2019-05-07T14:32:47.624Z,63.70
2019-05-07T14:35:37.665Z,64.20
2019-05-07T14:38:27.334Z,67.80
2019-05-07T14:41:15.264Z,65.00
2019-05-07T14:44:05.208Z,64.40
2019-05-07T14:46:54.441Z,65.50
2019-05-07T14:49:44.290Z,66.60
2019-05-07T14:52:35.579Z,66.00
2019-05-07T14:55:22.253Z,67.70
2019-05-07T14:58:09.592Z,68.60
2019-05-07T15:00:58.383Z,66.20
2019-05-07T15:03:46.247Z,66.30
2019-05-07T15:06:34.646Z,65.30
2019-05-07T15:09:23.265Z,63.60
2019-05-07T15:12:14.634Z,64.90
2019-05-07T15:15:02.226Z,63.60
2019-05-07T15:17:52.465Z,63.70
2019-05-07T15:20:41.941Z,64.90
2019-05-07T15:23:32.778Z,66.20
2019-05-07T15:26:22.032Z,67.80
2019-05-07T15:29:12.620Z,67.50
2019-05-07T15:32:03.400Z,68.00
2019-05-07T15:34:52.904Z,68.30
2019-05-07T15:37:42.542Z,68.30
2019-05-07T15:40:30.176Z,68.10
2019-05-07T15:43:17.943Z,64.60
2019-05-07T15:46:06.505Z,65.10
2019-05-07T15:48:54.322Z,64.40
2019-05-07T15:51:42.554Z,64.70
2019-05-07T15:54:32.611Z,65.10
2019-05-07T15:57:25.671Z,65.80
2019-05-07T16:00:22.600Z,66.00
2019-05-07T16:03:15.141Z,66.40
2019-05-07T16:06:03.792Z,64.00
2019-05-07T16:08:54.078Z,66.50
2019-05-07T16:11:44.958Z,66.50
2019-05-07T16:14:33.625Z,63.40
2019-05-07T16:17:29.695Z,63.90
2019-05-07T16:20:19.136Z,68.00
2019-05-07T16:23:14.625Z,66.00
2019-05-07T16:25:56.936Z,65.00
2019-05-07T16:28:45.377Z,65.20
2019-05-07T16:31:33.412Z,65.30
2019-05-07T16:34:43.277Z,67.10
2019-05-07T16:37:32.258Z,65.00
2019-05-07T16:40:20.272Z,67.30
2019-05-07T16:43:08.526Z,67.40
2019-05-07T16:45:57.606Z,69.00
2019-05-07T16:48:45.314Z,66.10
2019-05-07T16:51:33.187Z,66.50
2019-05-07T16:54:21.381Z,67.60
2019-05-07T16:57:26.923Z,69.10
2019-05-07T17:00:24.574Z,69.00
2019-05-07T17:03:14.070Z,69.60
2019-05-07T17:06:01.892Z,69.40
2019-05-07T17:08:51.774Z,69.50
2019-05-07T17:11:39.776Z,70.10
2019-05-07T17:14:27.833Z,70.30
2019-05-07T17:17:16.400Z,71.10
2019-05-07T17:20:06.244Z,71.50
2019-05-07T17:22:55.071Z,72.40
2019-05-07T17:25:43.239Z,71.50
2019-05-07T17:28:32.041Z,70.90
2019-05-07T17:31:22.741Z,71.60
2019-05-07T17:34:11.789Z,71.80
2019-05-07T17:37:18.626Z,72.80
2019-05-07T17:40:12.300Z,72.40
2019-05-07T17:42:59.898Z,74.30
2019-05-07T17:45:48.225Z,76.20
2019-05-07T17:48:36.545Z,79.40
2019-05-07T17:51:42.497Z,79.40
2019-05-07T17:54:31.854Z,75.50
2019-05-07T17:57:33.485Z,75.90
2019-05-07T18:00:22.153Z,76.30
2019-05-07T18:03:17.709Z,79.00
2019-05-07T18:06:07.219Z,75.40
2019-05-07T18:08:55.182Z,76.80
2019-05-07T18:11:43.439Z,77.40
2019-05-07T18:14:32.135Z,75.70
2019-05-07T18:17:38.699Z,79.30
2019-05-07T18:20:29.899Z,82.20
2019-05-07T18:23:18.701Z,79.80
2019-05-07T18:26:07.496Z,82.90
2019-05-07T18:28:55.783Z,82.80
2019-05-07T18:31:45.709Z,85.30
2019-05-07T18:34:33.646Z,81.40
2019-05-07T18:37:22.937Z,82.30
2019-05-07T18:40:12.728Z,82.90
2019-05-07T18:43:03.085Z,80.30
2019-05-07T18:45:51.846Z,82.30
2019-05-07T18:48:59.438Z,80.70
2019-05-07T18:51:47.832Z,81.40
2019-05-07T18:54:36.017Z,81.30
2019-05-07T18:57:23.814Z,80.50
2019-05-07T19:00:17.195Z,81.00
2019-05-07T19:03:05.201Z,80.60
2019-05-07T19:05:53.257Z,84.00
2019-05-07T19:08:42.219Z,82.00
2019-05-07T19:11:32.168Z,79.80
2019-05-07T19:14:22.681Z,80.50
2019-05-07T19:17:12.103Z,87.20
2019-05-07T19:19:59.159Z,86.50
2019-05-07T19:22:47.842Z,86.40
2019-05-07T19:25:36.122Z,86.20
2019-05-07T19:28:24.226Z,86.40
2019-05-07T19:31:12.984Z,87.00
2019-05-07T19:34:03.036Z,86.40
2019-05-07T19:36:52.042Z,86.50
2019-05-07T19:39:42.896Z,86.40
2019-05-07T19:42:31.895Z,85.90
2019-05-07T19:45:24.232Z,85.50
2019-05-07T19:48:09.611Z,86.70
2019-05-07T19:50:58.251Z,86.00
2019-05-07T19:53:46.999Z,86.70
2019-05-07T19:56:35.159Z,86.50
2019-05-07T19:59:23.403Z,85.40
2019-05-07T20:02:12.961Z,85.40
2019-05-07T20:05:03.305Z,84.80
2019-05-07T20:07:55.245Z,84.80
2019-05-07T20:10:42.212Z,84.90
2019-05-07T20:13:32.383Z,84.50
2019-05-07T20:16:20.183Z,86.10
2019-05-07T20:19:07.879Z,84.20
2019-05-07T20:21:56.807Z,84.20
2019-05-07T20:24:46.898Z,84.90
2019-05-07T20:27:33.940Z,83.00
2019-05-07T20:30:22.853Z,84.40
2019-05-07T20:33:11.042Z,84.10
2019-05-07T20:35:59.007Z,84.30
2019-05-07T20:38:46.995Z,84.60
2019-05-07T20:41:35.624Z,85.10
2019-05-07T20:44:23.450Z,86.90
2019-05-07T20:47:12.711Z,87.20
2019-05-07T20:50:01.811Z,88.10
2019-05-07T20:52:52.260Z,88.80
2019-05-07T20:55:46.801Z,88.10
2019-05-07T20:58:34.918Z,87.70
2019-05-07T21:01:22.826Z,88.40
2019-05-07T21:04:12.944Z,88.50
2019-05-07T21:07:02.125Z,88.50
2019-05-07T21:09:52.840Z,86.90
2019-05-07T21:12:42.304Z,87.70
2019-05-07T21:15:29.789Z,87.80
2019-05-07T21:18:17.591Z,88.80
2019-05-07T21:21:06.085Z,89.40
2019-05-07T21:23:54.811Z,89.00
2019-05-07T21:26:43.172Z,89.80
2019-05-07T21:29:32.695Z,89.60
2019-05-07T21:32:23.089Z,89.90
2019-05-07T21:35:10.837Z,90.00
2019-05-07T21:37:59.586Z,90.00
2019-05-07T21:40:47.927Z,90.60
2019-05-07T21:43:35.503Z,90.70
2019-05-07T21:46:23.622Z,90.70
2019-05-07T21:49:12.318Z,90.70
2019-05-07T21:52:01.939Z,90.60
2019-05-07T21:54:52.526Z,90.50
2019-05-07T21:57:42.046Z,90.50
2019-05-07T22:00:34.876Z,90.70
2019-05-07T22:03:23.146Z,90.80
2019-05-07T22:06:12.808Z,91.00
2019-05-07T22:09:02.017Z,90.90
2019-05-07T22:11:53.500Z,90.90
2019-05-07T22:14:40.063Z,90.80
2019-05-07T22:17:28.271Z,90.50
2019-05-07T22:20:15.950Z,90.30
2019-05-07T22:23:04.242Z,90.50
2019-05-07T22:25:52.298Z,90.50
2019-05-07T22:28:41.965Z,90.70
2019-05-07T22:31:43.918Z,90.50
2019-05-07T22:34:31.460Z,90.70
2019-05-07T22:37:21.933Z,90.60
2019-05-07T22:40:12.057Z,90.40
2019-05-07T22:42:59.431Z,90.60
2019-05-07T22:45:47.633Z,90.90
2019-05-07T22:48:35.500Z,90.70
2019-05-07T22:51:23.427Z,91.00
2019-05-07T22:54:12.094Z,91.10
2019-05-07T22:57:18.222Z,91.20
2019-05-07T23:00:12.155Z,91.30
2019-05-07T23:02:59.380Z,91.50
2019-05-07T23:05:47.195Z,91.60
2019-05-07T23:08:37.255Z,91.60
2019-05-07T23:11:25.323Z,91.80
2019-05-07T23:14:13.383Z,91.80
2019-05-07T23:17:02.243Z,91.80
2019-05-07T23:19:52.963Z,92.00
2019-05-07T23:22:39.891Z,92.10
2019-05-07T23:25:28.141Z,92.00
2019-05-07T23:28:16.316Z,92.30
2019-05-07T23:31:04.923Z,92.10
2019-05-07T23:33:53.574Z,92.10
2019-05-07T23:36:42.216Z,92.00
2019-05-07T23:39:42.084Z,91.90
2019-05-07T23:42:31.269Z,92.00
2019-05-07T23:45:19.303Z,92.00
2019-05-07T23:48:07.293Z,91.90
2019-05-07T23:50:55.161Z,91.90
2019-05-07T23:53:44.345Z,91.90
2019-05-07T23:56:33.051Z,91.80
2019-05-07T23:59:22.199Z,91.90
